sensor_id;sensor_type;location;lat;lon;timestamp;P1;durP1;ratioP1;P2;durP2;ratioP2
25946;SDS011;13745;51.470;9.894;2023-05-07T00:00:16;25.38;;;16.83;;
25946;SDS011;13745;51.470;9.894;2023-05-07T00:03:03;29.08;;;17.52;;
25946;SDS011;13745;51.470;9.894;2023-05-07T00:05:49;28.85;;;18.45;;
25946;SDS011;13745;51.470;9.894;2023-05-07T00:08:37;25.08;;;17.38;;
25946;SDS011;13745;51.470;9.894;2023-05-07T00:11:22;29.00;;;18.40;;
25946;SDS011;13745;51.470;9.894;2023-05-07T00:14:08;28.17;;;17.75;;
25946;SDS011;13745;51.470;9.894;2023-05-07T00:16:53;26.55;;;18.58;;
25946;SDS011;13745;51.470;9.894;2023-05-07T00:19:38;29.23;;;18.75;;
25946;SDS011;13745;51.470;9.894;2023-05-07T00:22:23;28.67;;;17.92;;
25946;SDS011;13745;51.470;9.894;2023-05-07T00:25:10;28.50;;;19.15;;
25946;SDS011;13745;51.470;9.894;2023-05-07T00:27:55;27.88;;;18.73;;
25946;SDS011;13745;51.470;9.894;2023-05-07T00:30:40;27.17;;;18.48;;
25946;SDS011;13745;51.470;9.894;2023-05-07T00:33:25;31.83;;;19.40;;
25946;SDS011;13745;51.470;9.894;2023-05-07T00:36:11;28.50;;;19.60;;
25946;SDS011;13745;51.470;9.894;2023-05-07T00:38:56;31.23;;;19.95;;
25946;SDS011;13745;51.470;9.894;2023-05-07T00:41:45;34.00;;;20.42;;
25946;SDS011;13745;51.470;9.894;2023-05-07T00:44:30;33.63;;;21.08;;
25946;SDS011;13745;51.470;9.894;2023-05-07T00:47:15;32.65;;;20.92;;
25946;SDS011;13745;51.470;9.894;2023-05-07T00:50:01;32.45;;;19.13;;
25946;SDS011;13745;51.470;9.894;2023-05-07T00:52:47;32.92;;;20.73;;
25946;SDS011;13745;51.470;9.894;2023-05-07T00:55:33;33.10;;;20.80;;
25946;SDS011;13745;51.470;9.894;2023-05-07T00:58:19;32.08;;;20.33;;
25946;SDS011;13745;51.470;9.894;2023-05-07T01:01:06;31.50;;;19.70;;
25946;SDS011;13745;51.470;9.894;2023-05-07T01:03:51;35.95;;;21.33;;
25946;SDS011;13745;51.470;9.894;2023-05-07T01:06:38;34.05;;;20.45;;
25946;SDS011;13745;51.470;9.894;2023-05-07T01:09:23;31.60;;;19.67;;
25946;SDS011;13745;51.470;9.894;2023-05-07T01:12:09;31.58;;;19.60;;
25946;SDS011;13745;51.470;9.894;2023-05-07T01:14:56;30.35;;;19.83;;
25946;SDS011;13745;51.470;9.894;2023-05-07T01:17:41;31.60;;;19.70;;
25946;SDS011;13745;51.470;9.894;2023-05-07T01:20:36;31.50;;;19.88;;
25946;SDS011;13745;51.470;9.894;2023-05-07T01:23:22;28.33;;;19.77;;
25946;SDS011;13745;51.470;9.894;2023-05-07T01:26:08;30.08;;;19.83;;
25946;SDS011;13745;51.470;9.894;2023-05-07T01:28:54;28.60;;;19.35;;
25946;SDS011;13745;51.470;9.894;2023-05-07T01:31:39;31.58;;;19.70;;
25946;SDS011;13745;51.470;9.894;2023-05-07T01:34:27;32.65;;;19.17;;
25946;SDS011;13745;51.470;9.894;2023-05-07T01:37:14;30.92;;;19.65;;
25946;SDS011;13745;51.470;9.894;2023-05-07T01:40:01;29.92;;;19.33;;
25946;SDS011;13745;51.470;9.894;2023-05-07T01:42:47;34.90;;;20.58;;
25946;SDS011;13745;51.470;9.894;2023-05-07T01:45:33;28.25;;;18.33;;
25946;SDS011;13745;51.470;9.894;2023-05-07T01:48:19;33.67;;;20.40;;
25946;SDS011;13745;51.470;9.894;2023-05-07T01:51:04;32.50;;;20.90;;
25946;SDS011;13745;51.470;9.894;2023-05-07T01:53:51;30.55;;;19.90;;
25946;SDS011;13745;51.470;9.894;2023-05-07T01:56:39;34.90;;;21.20;;
25946;SDS011;13745;51.470;9.894;2023-05-07T01:59:24;34.03;;;20.60;;
25946;SDS011;13745;51.470;9.894;2023-05-07T02:02:09;32.00;;;19.55;;
25946;SDS011;13745;51.470;9.894;2023-05-07T02:04:58;33.33;;;20.50;;
25946;SDS011;13745;51.470;9.894;2023-05-07T02:07:43;30.92;;;19.77;;
25946;SDS011;13745;51.470;9.894;2023-05-07T02:10:29;30.63;;;19.92;;
25946;SDS011;13745;51.470;9.894;2023-05-07T02:13:15;32.67;;;20.42;;
25946;SDS011;13745;51.470;9.894;2023-05-07T02:16:01;33.88;;;19.90;;
25946;SDS011;13745;51.470;9.894;2023-05-07T02:18:46;32.28;;;19.85;;
25946;SDS011;13745;51.470;9.894;2023-05-07T02:21:31;34.15;;;20.88;;
25946;SDS011;13745;51.470;9.894;2023-05-07T02:24:16;29.60;;;19.67;;
25946;SDS011;13745;51.470;9.894;2023-05-07T02:27:01;35.20;;;19.63;;
25946;SDS011;13745;51.470;9.894;2023-05-07T02:29:48;32.47;;;20.45;;
25946;SDS011;13745;51.470;9.894;2023-05-07T02:32:33;33.28;;;20.23;;
25946;SDS011;13745;51.470;9.894;2023-05-07T02:35:18;30.80;;;19.77;;
25946;SDS011;13745;51.470;9.894;2023-05-07T02:38:03;31.27;;;19.75;;
25946;SDS011;13745;51.470;9.894;2023-05-07T02:40:49;30.27;;;19.65;;
25946;SDS011;13745;51.470;9.894;2023-05-07T02:43:34;29.98;;;18.55;;
25946;SDS011;13745;51.470;9.894;2023-05-07T02:46:20;30.38;;;19.10;;
25946;SDS011;13745;51.470;9.894;2023-05-07T02:49:13;29.63;;;18.25;;
25946;SDS011;13745;51.470;9.894;2023-05-07T02:51:58;29.92;;;17.40;;
25946;SDS011;13745;51.470;9.894;2023-05-07T02:54:44;28.40;;;18.35;;
25946;SDS011;13745;51.470;9.894;2023-05-07T02:57:29;29.33;;;18.52;;
25946;SDS011;13745;51.470;9.894;2023-05-07T03:00:15;25.92;;;16.75;;
25946;SDS011;13745;51.470;9.894;2023-05-07T03:03:10;31.13;;;18.45;;
25946;SDS011;13745;51.470;9.894;2023-05-07T03:05:55;27.33;;;17.88;;
25946;SDS011;13745;51.470;9.894;2023-05-07T03:08:40;27.55;;;17.05;;
25946;SDS011;13745;51.470;9.894;2023-05-07T03:11:25;29.40;;;16.67;;
25946;SDS011;13745;51.470;9.894;2023-05-07T03:14:10;27.38;;;18.15;;
25946;SDS011;13745;51.470;9.894;2023-05-07T03:16:56;28.75;;;18.25;;
25946;SDS011;13745;51.470;9.894;2023-05-07T03:19:42;30.08;;;18.05;;
25946;SDS011;13745;51.470;9.894;2023-05-07T03:22:27;27.25;;;17.92;;
25946;SDS011;13745;51.470;9.894;2023-05-07T03:25:13;27.95;;;17.75;;
25946;SDS011;13745;51.470;9.894;2023-05-07T03:27:58;26.20;;;17.67;;
25946;SDS011;13745;51.470;9.894;2023-05-07T03:30:52;27.95;;;17.95;;
25946;SDS011;13745;51.470;9.894;2023-05-07T03:33:38;29.20;;;18.92;;
25946;SDS011;13745;51.470;9.894;2023-05-07T03:36:36;27.27;;;18.25;;
25946;SDS011;13745;51.470;9.894;2023-05-07T03:39:24;29.00;;;18.25;;
25946;SDS011;13745;51.470;9.894;2023-05-07T03:42:09;29.85;;;18.58;;
25946;SDS011;13745;51.470;9.894;2023-05-07T03:44:55;27.83;;;18.10;;
25946;SDS011;13745;51.470;9.894;2023-05-07T03:47:40;25.30;;;16.20;;
25946;SDS011;13745;51.470;9.894;2023-05-07T03:50:27;26.77;;;17.42;;
25946;SDS011;13745;51.470;9.894;2023-05-07T03:53:13;26.83;;;16.42;;
25946;SDS011;13745;51.470;9.894;2023-05-07T03:55:58;30.67;;;18.80;;
25946;SDS011;13745;51.470;9.894;2023-05-07T03:58:47;31.58;;;18.20;;
25946;SDS011;13745;51.470;9.894;2023-05-07T04:01:33;28.25;;;17.35;;
25946;SDS011;13745;51.470;9.894;2023-05-07T04:04:18;28.92;;;18.50;;
25946;SDS011;13745;51.470;9.894;2023-05-07T04:07:04;31.05;;;18.65;;
25946;SDS011;13745;51.470;9.894;2023-05-07T04:09:55;24.80;;;17.13;;
25946;SDS011;13745;51.470;9.894;2023-05-07T04:12:41;29.45;;;19.33;;
25946;SDS011;13745;51.470;9.894;2023-05-07T04:15:28;29.13;;;18.20;;
25946;SDS011;13745;51.470;9.894;2023-05-07T04:18:13;26.50;;;17.88;;
25946;SDS011;13745;51.470;9.894;2023-05-07T04:21:02;27.95;;;17.73;;
25946;SDS011;13745;51.470;9.894;2023-05-07T04:23:47;29.70;;;17.38;;
25946;SDS011;13745;51.470;9.894;2023-05-07T04:26:34;26.95;;;17.05;;
25946;SDS011;13745;51.470;9.894;2023-05-07T04:29:19;25.00;;;16.75;;
25946;SDS011;13745;51.470;9.894;2023-05-07T04:32:04;24.10;;;17.23;;
25946;SDS011;13745;51.470;9.894;2023-05-07T04:34:50;26.85;;;17.42;;
25946;SDS011;13745;51.470;9.894;2023-05-07T04:37:35;28.67;;;17.88;;
25946;SDS011;13745;51.470;9.894;2023-05-07T04:40:20;27.13;;;16.38;;
25946;SDS011;13745;51.470;9.894;2023-05-07T04:43:07;27.42;;;16.88;;
25946;SDS011;13745;51.470;9.894;2023-05-07T04:45:58;29.02;;;17.02;;
25946;SDS011;13745;51.470;9.894;2023-05-07T04:48:44;29.05;;;16.80;;
25946;SDS011;13745;51.470;9.894;2023-05-07T04:51:29;30.92;;;18.25;;
25946;SDS011;13745;51.470;9.894;2023-05-07T04:54:16;30.08;;;17.65;;
25946;SDS011;13745;51.470;9.894;2023-05-07T04:57:03;28.30;;;16.40;;
25946;SDS011;13745;51.470;9.894;2023-05-07T04:59:49;28.15;;;17.20;;
25946;SDS011;13745;51.470;9.894;2023-05-07T05:02:35;31.00;;;18.10;;
25946;SDS011;13745;51.470;9.894;2023-05-07T05:05:20;35.15;;;18.58;;
25946;SDS011;13745;51.470;9.894;2023-05-07T05:08:10;32.45;;;17.65;;
25946;SDS011;13745;51.470;9.894;2023-05-07T05:10:58;32.40;;;17.48;;
25946;SDS011;13745;51.470;9.894;2023-05-07T05:13:46;31.08;;;17.30;;
25946;SDS011;13745;51.470;9.894;2023-05-07T05:16:36;29.90;;;16.55;;
25946;SDS011;13745;51.470;9.894;2023-05-07T05:19:22;31.63;;;17.38;;
25946;SDS011;13745;51.470;9.894;2023-05-07T05:22:07;27.23;;;16.25;;
25946;SDS011;13745;51.470;9.894;2023-05-07T05:24:52;30.30;;;17.00;;
25946;SDS011;13745;51.470;9.894;2023-05-07T05:27:39;28.20;;;17.05;;
25946;SDS011;13745;51.470;9.894;2023-05-07T05:30:24;30.38;;;17.35;;
25946;SDS011;13745;51.470;9.894;2023-05-07T05:33:11;25.25;;;15.95;;
25946;SDS011;13745;51.470;9.894;2023-05-07T05:35:56;27.42;;;15.98;;
25946;SDS011;13745;51.470;9.894;2023-05-07T05:38:41;28.83;;;16.15;;
25946;SDS011;13745;51.470;9.894;2023-05-07T05:41:28;28.95;;;16.73;;
25946;SDS011;13745;51.470;9.894;2023-05-07T05:44:15;29.60;;;16.80;;
25946;SDS011;13745;51.470;9.894;2023-05-07T05:47:01;30.48;;;16.10;;
25946;SDS011;13745;51.470;9.894;2023-05-07T05:49:48;28.90;;;16.73;;
25946;SDS011;13745;51.470;9.894;2023-05-07T05:52:34;25.88;;;15.80;;
25946;SDS011;13745;51.470;9.894;2023-05-07T05:55:20;28.23;;;15.85;;
25946;SDS011;13745;51.470;9.894;2023-05-07T05:58:05;26.80;;;14.82;;
25946;SDS011;13745;51.470;9.894;2023-05-07T06:00:55;23.50;;;14.32;;
25946;SDS011;13745;51.470;9.894;2023-05-07T06:03:43;25.27;;;15.98;;
25946;SDS011;13745;51.470;9.894;2023-05-07T06:06:33;23.67;;;14.50;;
25946;SDS011;13745;51.470;9.894;2023-05-07T06:09:20;29.58;;;14.32;;
25946;SDS011;13745;51.470;9.894;2023-05-07T06:12:05;23.08;;;14.05;;
25946;SDS011;13745;51.470;9.894;2023-05-07T06:14:51;28.02;;;15.55;;
25946;SDS011;13745;51.470;9.894;2023-05-07T06:17:36;23.65;;;14.38;;
25946;SDS011;13745;51.470;9.894;2023-05-07T06:20:21;26.13;;;14.88;;
25946;SDS011;13745;51.470;9.894;2023-05-07T06:23:08;21.52;;;13.75;;
25946;SDS011;13745;51.470;9.894;2023-05-07T06:25:54;20.55;;;13.43;;
25946;SDS011;13745;51.470;9.894;2023-05-07T06:28:43;24.15;;;15.23;;
25946;SDS011;13745;51.470;9.894;2023-05-07T06:31:30;22.17;;;13.38;;
25946;SDS011;13745;51.470;9.894;2023-05-07T06:34:20;22.08;;;14.18;;
25946;SDS011;13745;51.470;9.894;2023-05-07T06:37:06;22.88;;;13.70;;
25946;SDS011;13745;51.470;9.894;2023-05-07T06:40:06;20.77;;;13.10;;
25946;SDS011;13745;51.470;9.894;2023-05-07T06:42:54;21.02;;;13.60;;
25946;SDS011;13745;51.470;9.894;2023-05-07T06:45:47;21.23;;;12.33;;
25946;SDS011;13745;51.470;9.894;2023-05-07T06:48:32;22.00;;;13.63;;
25946;SDS011;13745;51.470;9.894;2023-05-07T06:51:21;23.65;;;14.45;;
25946;SDS011;13745;51.470;9.894;2023-05-07T06:54:07;20.00;;;13.18;;
25946;SDS011;13745;51.470;9.894;2023-05-07T06:56:56;21.80;;;13.45;;
25946;SDS011;13745;51.470;9.894;2023-05-07T06:59:43;18.02;;;12.55;;
25946;SDS011;13745;51.470;9.894;2023-05-07T07:02:28;18.65;;;12.15;;
25946;SDS011;13745;51.470;9.894;2023-05-07T07:05:13;19.58;;;13.30;;
25946;SDS011;13745;51.470;9.894;2023-05-07T07:07:58;17.50;;;11.13;;
25946;SDS011;13745;51.470;9.894;2023-05-07T07:10:43;16.80;;;11.38;;
25946;SDS011;13745;51.470;9.894;2023-05-07T07:13:30;16.73;;;11.35;;
25946;SDS011;13745;51.470;9.894;2023-05-07T07:16:15;18.85;;;10.57;;
25946;SDS011;13745;51.470;9.894;2023-05-07T07:19:02;15.77;;;10.75;;
25946;SDS011;13745;51.470;9.894;2023-05-07T07:21:47;14.75;;;10.77;;
25946;SDS011;13745;51.470;9.894;2023-05-07T07:24:33;15.88;;;10.98;;
25946;SDS011;13745;51.470;9.894;2023-05-07T07:27:22;15.32;;;10.20;;
25946;SDS011;13745;51.470;9.894;2023-05-07T07:30:09;13.65;;;10.27;;
25946;SDS011;13745;51.470;9.894;2023-05-07T07:32:57;15.32;;;9.88;;
25946;SDS011;13745;51.470;9.894;2023-05-07T07:35:48;12.40;;;9.32;;
25946;SDS011;13745;51.470;9.894;2023-05-07T07:38:34;12.35;;;8.98;;
25946;SDS011;13745;51.470;9.894;2023-05-07T07:41:20;15.30;;;9.27;;
25946;SDS011;13745;51.470;9.894;2023-05-07T07:44:05;12.48;;;8.48;;
25946;SDS011;13745;51.470;9.894;2023-05-07T07:46:54;15.70;;;9.88;;
25946;SDS011;13745;51.470;9.894;2023-05-07T07:49:42;10.52;;;7.82;;
25946;SDS011;13745;51.470;9.894;2023-05-07T07:52:28;11.60;;;7.82;;
25946;SDS011;13745;51.470;9.894;2023-05-07T07:55:14;8.98;;;7.10;;
25946;SDS011;13745;51.470;9.894;2023-05-07T07:58:02;10.90;;;7.28;;
25946;SDS011;13745;51.470;9.894;2023-05-07T08:00:47;7.28;;;6.38;;
25946;SDS011;13745;51.470;9.894;2023-05-07T08:03:34;9.48;;;7.07;;
25946;SDS011;13745;51.470;9.894;2023-05-07T08:06:20;10.20;;;6.63;;
25946;SDS011;13745;51.470;9.894;2023-05-07T08:09:05;7.43;;;6.03;;
25946;SDS011;13745;51.470;9.894;2023-05-07T08:11:51;7.15;;;5.97;;
25946;SDS011;13745;51.470;9.894;2023-05-07T08:14:36;7.25;;;5.95;;
25946;SDS011;13745;51.470;9.894;2023-05-07T08:17:23;7.05;;;5.53;;
25946;SDS011;13745;51.470;9.894;2023-05-07T08:20:10;6.40;;;5.55;;
25946;SDS011;13745;51.470;9.894;2023-05-07T08:22:56;8.65;;;6.65;;
25946;SDS011;13745;51.470;9.894;2023-05-07T08:25:41;7.75;;;5.68;;
25946;SDS011;13745;51.470;9.894;2023-05-07T08:28:26;7.75;;;6.40;;
25946;SDS011;13745;51.470;9.894;2023-05-07T08:31:12;7.72;;;5.80;;
25946;SDS011;13745;51.470;9.894;2023-05-07T08:33:59;8.30;;;6.07;;
25946;SDS011;13745;51.470;9.894;2023-05-07T08:36:45;7.18;;;5.65;;
25946;SDS011;13745;51.470;9.894;2023-05-07T08:39:34;8.70;;;6.57;;
25946;SDS011;13745;51.470;9.894;2023-05-07T08:42:20;6.43;;;5.13;;
25946;SDS011;13745;51.470;9.894;2023-05-07T08:45:08;7.30;;;6.03;;
25946;SDS011;13745;51.470;9.894;2023-05-07T08:47:58;7.70;;;6.18;;
25946;SDS011;13745;51.470;9.894;2023-05-07T08:50:49;7.65;;;5.85;;
25946;SDS011;13745;51.470;9.894;2023-05-07T08:53:36;9.20;;;6.97;;
25946;SDS011;13745;51.470;9.894;2023-05-07T08:56:25;7.90;;;6.55;;
25946;SDS011;13745;51.470;9.894;2023-05-07T08:59:13;8.07;;;6.18;;
25946;SDS011;13745;51.470;9.894;2023-05-07T09:02:00;7.72;;;6.32;;
25946;SDS011;13745;51.470;9.894;2023-05-07T09:04:45;8.82;;;6.53;;
25946;SDS011;13745;51.470;9.894;2023-05-07T09:07:31;8.70;;;6.25;;
25946;SDS011;13745;51.470;9.894;2023-05-07T09:10:18;6.53;;;5.90;;
25946;SDS011;13745;51.470;9.894;2023-05-07T09:13:04;7.20;;;6.15;;
25946;SDS011;13745;51.470;9.894;2023-05-07T09:15:49;7.63;;;5.93;;
25946;SDS011;13745;51.470;9.894;2023-05-07T09:18:39;8.95;;;6.07;;
25946;SDS011;13745;51.470;9.894;2023-05-07T09:21:25;7.68;;;6.18;;
25946;SDS011;13745;51.470;9.894;2023-05-07T09:24:14;8.73;;;6.43;;
25946;SDS011;13745;51.470;9.894;2023-05-07T09:27:02;7.15;;;6.45;;
25946;SDS011;13745;51.470;9.894;2023-05-07T09:29:48;9.73;;;6.65;;
25946;SDS011;13745;51.470;9.894;2023-05-07T09:32:34;8.40;;;7.07;;
25946;SDS011;13745;51.470;9.894;2023-05-07T09:35:22;9.43;;;7.15;;
25946;SDS011;13745;51.470;9.894;2023-05-07T09:38:14;11.32;;;7.25;;
25946;SDS011;13745;51.470;9.894;2023-05-07T09:41:02;9.60;;;7.72;;
25946;SDS011;13745;51.470;9.894;2023-05-07T09:43:54;9.45;;;7.93;;
25946;SDS011;13745;51.470;9.894;2023-05-07T09:46:44;9.43;;;7.70;;
25946;SDS011;13745;51.470;9.894;2023-05-07T09:49:38;9.88;;;7.95;;
25946;SDS011;13745;51.470;9.894;2023-05-07T09:52:27;9.60;;;7.93;;
25946;SDS011;13745;51.470;9.894;2023-05-07T09:55:18;10.85;;;8.45;;
25946;SDS011;13745;51.470;9.894;2023-05-07T09:58:04;12.88;;;7.93;;
25946;SDS011;13745;51.470;9.894;2023-05-07T10:00:52;12.10;;;8.73;;
25946;SDS011;13745;51.470;9.894;2023-05-07T10:03:39;10.55;;;8.13;;
25946;SDS011;13745;51.470;9.894;2023-05-07T10:06:27;12.13;;;9.52;;
25946;SDS011;13745;51.470;9.894;2023-05-07T10:09:14;14.07;;;9.75;;
25946;SDS011;13745;51.470;9.894;2023-05-07T10:12:00;13.52;;;9.63;;
25946;SDS011;13745;51.470;9.894;2023-05-07T10:14:47;13.18;;;9.93;;
25946;SDS011;13745;51.470;9.894;2023-05-07T10:17:36;15.90;;;10.82;;
25946;SDS011;13745;51.470;9.894;2023-05-07T10:20:23;15.18;;;10.07;;
25946;SDS011;13745;51.470;9.894;2023-05-07T10:23:12;16.77;;;11.15;;
25946;SDS011;13745;51.470;9.894;2023-05-07T10:26:04;15.50;;;10.88;;
25946;SDS011;13745;51.470;9.894;2023-05-07T10:28:53;18.08;;;12.73;;
25946;SDS011;13745;51.470;9.894;2023-05-07T10:31:48;16.90;;;12.07;;
25946;SDS011;13745;51.470;9.894;2023-05-07T10:34:43;17.23;;;13.13;;
25946;SDS011;13745;51.470;9.894;2023-05-07T10:37:30;18.02;;;12.52;;
25946;SDS011;13745;51.470;9.894;2023-05-07T10:40:16;19.52;;;13.30;;
25946;SDS011;13745;51.470;9.894;2023-05-07T10:43:03;18.70;;;13.68;;
25946;SDS011;13745;51.470;9.894;2023-05-07T10:46:13;21.97;;;14.60;;
25946;SDS011;13745;51.470;9.894;2023-05-07T10:49:10;18.58;;;14.07;;
25946;SDS011;13745;51.470;9.894;2023-05-07T10:52:21;19.98;;;13.60;;
25946;SDS011;13745;51.470;9.894;2023-05-07T10:55:24;22.20;;;15.15;;
25946;SDS011;13745;51.470;9.894;2023-05-07T10:58:27;20.85;;;15.10;;
25946;SDS011;13745;51.470;9.894;2023-05-07T11:04:46;20.90;;;14.95;;
25946;SDS011;13745;51.470;9.894;2023-05-07T11:08:08;19.88;;;14.88;;
25946;SDS011;13745;51.470;9.894;2023-05-07T11:11:04;21.98;;;15.68;;
25946;SDS011;13745;51.470;9.894;2023-05-07T11:14:09;20.20;;;14.70;;
25946;SDS011;13745;51.470;9.894;2023-05-07T11:17:06;20.20;;;15.35;;
25946;SDS011;13745;51.470;9.894;2023-05-07T11:19:52;21.83;;;16.45;;
25946;SDS011;13745;51.470;9.894;2023-05-07T11:23:06;23.17;;;16.67;;
25946;SDS011;13745;51.470;9.894;2023-05-07T11:26:02;22.15;;;16.80;;
25946;SDS011;13745;51.470;9.894;2023-05-07T11:28:48;21.85;;;15.85;;
25946;SDS011;13745;51.470;9.894;2023-05-07T11:31:34;23.33;;;16.20;;
25946;SDS011;13745;51.470;9.894;2023-05-07T11:34:20;21.10;;;16.35;;
25946;SDS011;13745;51.470;9.894;2023-05-07T11:37:06;21.48;;;16.00;;
25946;SDS011;13745;51.470;9.894;2023-05-07T11:40:04;20.08;;;15.57;;
25946;SDS011;13745;51.470;9.894;2023-05-07T11:42:51;19.00;;;15.27;;
25946;SDS011;13745;51.470;9.894;2023-05-07T11:45:36;18.52;;;15.32;;
25946;SDS011;13745;51.470;9.894;2023-05-07T11:48:21;22.23;;;16.45;;
25946;SDS011;13745;51.470;9.894;2023-05-07T11:51:07;20.33;;;15.70;;
25946;SDS011;13745;51.470;9.894;2023-05-07T11:53:55;20.75;;;15.73;;
25946;SDS011;13745;51.470;9.894;2023-05-07T11:56:42;20.73;;;16.50;;
25946;SDS011;13745;51.470;9.894;2023-05-07T11:59:27;21.17;;;15.27;;
25946;SDS011;13745;51.470;9.894;2023-05-07T12:02:13;23.13;;;16.92;;
25946;SDS011;13745;51.470;9.894;2023-05-07T12:04:59;21.92;;;16.25;;
25946;SDS011;13745;51.470;9.894;2023-05-07T12:07:46;17.20;;;14.32;;
25946;SDS011;13745;51.470;9.894;2023-05-07T12:10:31;17.92;;;14.20;;
25946;SDS011;13745;51.470;9.894;2023-05-07T12:13:18;19.35;;;15.18;;
25946;SDS011;13745;51.470;9.894;2023-05-07T12:16:04;17.60;;;14.40;;
25946;SDS011;13745;51.470;9.894;2023-05-07T12:18:51;19.02;;;14.68;;
25946;SDS011;13745;51.470;9.894;2023-05-07T12:21:38;19.27;;;15.40;;
25946;SDS011;13745;51.470;9.894;2023-05-07T12:24:24;18.52;;;15.23;;
25946;SDS011;13745;51.470;9.894;2023-05-07T12:27:09;20.55;;;15.77;;
25946;SDS011;13745;51.470;9.894;2023-05-07T12:29:56;20.20;;;16.02;;
25946;SDS011;13745;51.470;9.894;2023-05-07T12:32:42;18.48;;;14.57;;
25946;SDS011;13745;51.470;9.894;2023-05-07T12:35:30;18.63;;;14.30;;
25946;SDS011;13745;51.470;9.894;2023-05-07T12:38:16;16.38;;;13.63;;
25946;SDS011;13745;51.470;9.894;2023-05-07T12:41:03;17.95;;;14.07;;
25946;SDS011;13745;51.470;9.894;2023-05-07T12:43:49;18.58;;;14.43;;
25946;SDS011;13745;51.470;9.894;2023-05-07T12:46:39;17.10;;;13.50;;
25946;SDS011;13745;51.470;9.894;2023-05-07T12:49:24;17.10;;;14.30;;
25946;SDS011;13745;51.470;9.894;2023-05-07T12:52:09;18.13;;;13.73;;
25946;SDS011;13745;51.470;9.894;2023-05-07T12:54:56;16.08;;;12.90;;
25946;SDS011;13745;51.470;9.894;2023-05-07T12:57:42;16.20;;;13.02;;
25946;SDS011;13745;51.470;9.894;2023-05-07T13:00:35;16.20;;;13.55;;
25946;SDS011;13745;51.470;9.894;2023-05-07T13:03:23;17.83;;;13.73;;
25946;SDS011;13745;51.470;9.894;2023-05-07T13:06:10;16.98;;;13.65;;
25946;SDS011;13745;51.470;9.894;2023-05-07T13:08:56;17.67;;;13.52;;
25946;SDS011;13745;51.470;9.894;2023-05-07T13:11:41;15.52;;;12.90;;
25946;SDS011;13745;51.470;9.894;2023-05-07T13:14:26;17.00;;;13.10;;
25946;SDS011;13745;51.470;9.894;2023-05-07T13:17:11;14.13;;;12.57;;
25946;SDS011;13745;51.470;9.894;2023-05-07T13:19:57;16.15;;;13.05;;
25946;SDS011;13745;51.470;9.894;2023-05-07T13:22:42;14.07;;;12.45;;
25946;SDS011;13745;51.470;9.894;2023-05-07T13:25:27;13.63;;;11.20;;
25946;SDS011;13745;51.470;9.894;2023-05-07T13:28:12;13.32;;;11.32;;
25946;SDS011;13745;51.470;9.894;2023-05-07T13:30:57;14.18;;;11.52;;
25946;SDS011;13745;51.470;9.894;2023-05-07T13:33:42;13.63;;;12.23;;
25946;SDS011;13745;51.470;9.894;2023-05-07T13:36:29;15.25;;;11.88;;
25946;SDS011;13745;51.470;9.894;2023-05-07T13:39:16;13.77;;;11.50;;
25946;SDS011;13745;51.470;9.894;2023-05-07T13:42:02;13.02;;;11.63;;
25946;SDS011;13745;51.470;9.894;2023-05-07T13:44:47;13.43;;;11.73;;
25946;SDS011;13745;51.470;9.894;2023-05-07T13:47:32;13.13;;;11.18;;
25946;SDS011;13745;51.470;9.894;2023-05-07T13:50:17;12.95;;;11.55;;
25946;SDS011;13745;51.470;9.894;2023-05-07T13:53:04;14.77;;;12.02;;
25946;SDS011;13745;51.470;9.894;2023-05-07T13:55:49;13.07;;;11.15;;
25946;SDS011;13745;51.470;9.894;2023-05-07T13:58:34;12.93;;;10.88;;
25946;SDS011;13745;51.470;9.894;2023-05-07T14:01:20;11.77;;;10.18;;
25946;SDS011;13745;51.470;9.894;2023-05-07T14:04:05;11.90;;;10.70;;
25946;SDS011;13745;51.470;9.894;2023-05-07T14:06:51;12.65;;;9.82;;
25946;SDS011;13745;51.470;9.894;2023-05-07T14:09:38;11.85;;;10.02;;
25946;SDS011;13745;51.470;9.894;2023-05-07T14:12:23;10.68;;;9.63;;
25946;SDS011;13745;51.470;9.894;2023-05-07T14:15:09;12.65;;;11.35;;
25946;SDS011;13745;51.470;9.894;2023-05-07T14:17:54;12.25;;;10.65;;
25946;SDS011;13745;51.470;9.894;2023-05-07T14:20:41;13.30;;;10.60;;
25946;SDS011;13745;51.470;9.894;2023-05-07T14:23:26;12.10;;;10.55;;
25946;SDS011;13745;51.470;9.894;2023-05-07T14:26:13;11.70;;;10.07;;
25946;SDS011;13745;51.470;9.894;2023-05-07T14:28:58;10.82;;;9.73;;
25946;SDS011;13745;51.470;9.894;2023-05-07T14:31:43;11.43;;;10.00;;
25946;SDS011;13745;51.470;9.894;2023-05-07T14:34:29;12.00;;;10.38;;
25946;SDS011;13745;51.470;9.894;2023-05-07T14:37:14;12.15;;;10.00;;
25946;SDS011;13745;51.470;9.894;2023-05-07T14:39:59;12.20;;;9.77;;
25946;SDS011;13745;51.470;9.894;2023-05-07T14:42:46;10.32;;;9.23;;
25946;SDS011;13745;51.470;9.894;2023-05-07T14:45:31;10.25;;;9.20;;
25946;SDS011;13745;51.470;9.894;2023-05-07T14:48:16;10.88;;;9.05;;
25946;SDS011;13745;51.470;9.894;2023-05-07T14:51:01;9.75;;;8.75;;
25946;SDS011;13745;51.470;9.894;2023-05-07T14:53:46;9.95;;;8.88;;
25946;SDS011;13745;51.470;9.894;2023-05-07T14:56:31;10.85;;;9.75;;
25946;SDS011;13745;51.470;9.894;2023-05-07T14:59:18;10.57;;;9.55;;
25946;SDS011;13745;51.470;9.894;2023-05-07T15:02:04;9.45;;;8.52;;
25946;SDS011;13745;51.470;9.894;2023-05-07T15:04:51;11.27;;;10.15;;
25946;SDS011;13745;51.470;9.894;2023-05-07T15:07:36;11.35;;;10.23;;
25946;SDS011;13745;51.470;9.894;2023-05-07T15:10:22;9.88;;;8.90;;
25946;SDS011;13745;51.470;9.894;2023-05-07T15:13:07;10.85;;;9.85;;
25946;SDS011;13745;51.470;9.894;2023-05-07T15:15:53;11.32;;;10.23;;
25946;SDS011;13745;51.470;9.894;2023-05-07T15:18:39;14.35;;;10.10;;
25946;SDS011;13745;51.470;9.894;2023-05-07T15:21:24;11.00;;;9.77;;
25946;SDS011;13745;51.470;9.894;2023-05-07T15:24:10;10.95;;;9.95;;
25946;SDS011;13745;51.470;9.894;2023-05-07T15:26:55;11.25;;;10.18;;
25946;SDS011;13745;51.470;9.894;2023-05-07T15:29:41;10.50;;;9.40;;
25946;SDS011;13745;51.470;9.894;2023-05-07T15:32:27;9.98;;;9.05;;
25946;SDS011;13745;51.470;9.894;2023-05-07T15:35:13;9.48;;;8.57;;
25946;SDS011;13745;51.470;9.894;2023-05-07T15:37:59;8.65;;;7.85;;
25946;SDS011;13745;51.470;9.894;2023-05-07T15:40:46;8.98;;;8.18;;
25946;SDS011;13745;51.470;9.894;2023-05-07T15:43:32;8.50;;;7.70;;
25946;SDS011;13745;51.470;9.894;2023-05-07T15:46:17;8.48;;;7.60;;
25946;SDS011;13745;51.470;9.894;2023-05-07T15:49:05;8.18;;;7.38;;
25946;SDS011;13745;51.470;9.894;2023-05-07T15:51:51;8.10;;;7.40;;
25946;SDS011;13745;51.470;9.894;2023-05-07T15:54:38;8.32;;;7.10;;
25946;SDS011;13745;51.470;9.894;2023-05-07T15:57:23;7.70;;;6.90;;
25946;SDS011;13745;51.470;9.894;2023-05-07T16:00:09;7.63;;;6.32;;
25946;SDS011;13745;51.470;9.894;2023-05-07T16:02:58;7.25;;;6.55;;
25946;SDS011;13745;51.470;9.894;2023-05-07T16:05:45;8.38;;;7.15;;
25946;SDS011;13745;51.470;9.894;2023-05-07T16:08:30;8.10;;;7.20;;
25946;SDS011;13745;51.470;9.894;2023-05-07T16:11:16;7.82;;;7.03;;
25946;SDS011;13745;51.470;9.894;2023-05-07T16:14:01;7.50;;;6.88;;
25946;SDS011;13745;51.470;9.894;2023-05-07T16:16:46;8.75;;;6.97;;
25946;SDS011;13745;51.470;9.894;2023-05-07T16:19:31;7.80;;;7.10;;
25946;SDS011;13745;51.470;9.894;2023-05-07T16:22:18;10.30;;;7.47;;
25946;SDS011;13745;51.470;9.894;2023-05-07T16:25:05;7.85;;;7.15;;
25946;SDS011;13745;51.470;9.894;2023-05-07T16:27:54;7.25;;;6.60;;